sensor_id;sensor_type;location;lat;lon;timestamp;P1;durP1;ratioP1;P2;durP2;ratioP2
24557;SDS011;12726;49.148;8.582;2022-12-18T00:00:06;67.20;;;26.75;;
24557;SDS011;12726;49.148;8.582;2022-12-18T00:02:52;65.53;;;27.42;;
24557;SDS011;12726;49.148;8.582;2022-12-18T00:05:37;69.43;;;28.42;;
24557;SDS011;12726;49.148;8.582;2022-12-18T00:08:24;63.00;;;25.42;;
24557;SDS011;12726;49.148;8.582;2022-12-18T00:11:10;67.47;;;26.48;;
24557;SDS011;12726;49.148;8.582;2022-12-18T00:13:58;57.60;;;25.40;;
24557;SDS011;12726;49.148;8.582;2022-12-18T00:16:44;55.28;;;24.63;;
24557;SDS011;12726;49.148;8.582;2022-12-18T00:19:30;60.85;;;25.77;;
24557;SDS011;12726;49.148;8.582;2022-12-18T00:22:15;66.82;;;26.98;;
24557;SDS011;12726;49.148;8.582;2022-12-18T00:25:02;57.30;;;25.77;;
24557;SDS011;12726;49.148;8.582;2022-12-18T00:27:48;64.45;;;26.88;;
24557;SDS011;12726;49.148;8.582;2022-12-18T00:30:33;62.78;;;24.40;;
24557;SDS011;12726;49.148;8.582;2022-12-18T00:33:19;65.45;;;25.50;;
24557;SDS011;12726;49.148;8.582;2022-12-18T00:36:04;62.20;;;26.15;;
24557;SDS011;12726;49.148;8.582;2022-12-18T00:38:51;64.13;;;26.92;;
24557;SDS011;12726;49.148;8.582;2022-12-18T00:41:42;64.85;;;25.40;;
24557;SDS011;12726;49.148;8.582;2022-12-18T00:44:45;57.85;;;24.55;;
24557;SDS011;12726;49.148;8.582;2022-12-18T00:47:31;62.47;;;24.48;;
24557;SDS011;12726;49.148;8.582;2022-12-18T00:50:16;66.07;;;26.85;;
24557;SDS011;12726;49.148;8.582;2022-12-18T00:53:01;66.85;;;26.48;;
24557;SDS011;12726;49.148;8.582;2022-12-18T00:55:47;58.50;;;25.70;;
24557;SDS011;12726;49.148;8.582;2022-12-18T00:58:33;58.83;;;24.20;;
24557;SDS011;12726;49.148;8.582;2022-12-18T01:01:19;56.50;;;25.17;;
24557;SDS011;12726;49.148;8.582;2022-12-18T01:04:04;58.00;;;23.83;;
24557;SDS011;12726;49.148;8.582;2022-12-18T01:06:50;63.45;;;23.98;;
24557;SDS011;12726;49.148;8.582;2022-12-18T01:09:35;57.17;;;24.83;;
24557;SDS011;12726;49.148;8.582;2022-12-18T01:12:20;59.08;;;25.60;;
24557;SDS011;12726;49.148;8.582;2022-12-18T01:15:07;60.80;;;24.70;;
24557;SDS011;12726;49.148;8.582;2022-12-18T01:17:53;63.20;;;24.90;;
24557;SDS011;12726;49.148;8.582;2022-12-18T01:20:39;60.80;;;23.58;;
24557;SDS011;12726;49.148;8.582;2022-12-18T01:23:27;64.88;;;23.95;;
24557;SDS011;12726;49.148;8.582;2022-12-18T01:26:13;63.97;;;24.42;;
24557;SDS011;12726;49.148;8.582;2022-12-18T01:29:00;65.00;;;26.27;;
24557;SDS011;12726;49.148;8.582;2022-12-18T01:31:47;62.05;;;23.90;;
24557;SDS011;12726;49.148;8.582;2022-12-18T01:34:32;61.00;;;25.60;;
24557;SDS011;12726;49.148;8.582;2022-12-18T01:37:18;66.95;;;25.15;;
24557;SDS011;12726;49.148;8.582;2022-12-18T01:40:03;64.70;;;25.50;;
24557;SDS011;12726;49.148;8.582;2022-12-18T01:42:50;58.75;;;25.05;;
24557;SDS011;12726;49.148;8.582;2022-12-18T01:45:36;65.32;;;25.52;;
24557;SDS011;12726;49.148;8.582;2022-12-18T01:48:23;60.97;;;25.20;;
24557;SDS011;12726;49.148;8.582;2022-12-18T01:51:09;62.13;;;23.33;;
24557;SDS011;12726;49.148;8.582;2022-12-18T01:53:57;58.28;;;24.85;;
24557;SDS011;12726;49.148;8.582;2022-12-18T01:56:44;66.60;;;25.00;;
24557;SDS011;12726;49.148;8.582;2022-12-18T01:59:30;57.10;;;23.10;;
24557;SDS011;12726;49.148;8.582;2022-12-18T02:02:17;53.95;;;25.13;;
24557;SDS011;12726;49.148;8.582;2022-12-18T02:05:05;58.08;;;25.35;;
24557;SDS011;12726;49.148;8.582;2022-12-18T02:07:56;60.72;;;25.60;;
24557;SDS011;12726;49.148;8.582;2022-12-18T02:10:51;59.05;;;25.23;;
24557;SDS011;12726;49.148;8.582;2022-12-18T02:13:46;68.03;;;25.13;;
24557;SDS011;12726;49.148;8.582;2022-12-18T02:16:39;55.72;;;24.02;;
24557;SDS011;12726;49.148;8.582;2022-12-18T02:19:44;55.10;;;23.55;;
24557;SDS011;12726;49.148;8.582;2022-12-18T02:22:43;53.63;;;24.08;;
24557;SDS011;12726;49.148;8.582;2022-12-18T02:28:54;62.13;;;26.08;;
24557;SDS011;12726;49.148;8.582;2022-12-18T02:31:45;60.47;;;23.77;;
24557;SDS011;12726;49.148;8.582;2022-12-18T02:34:36;60.22;;;25.58;;
24557;SDS011;12726;49.148;8.582;2022-12-18T02:37:23;59.30;;;24.45;;
24557;SDS011;12726;49.148;8.582;2022-12-18T02:40:11;50.75;;;23.50;;
24557;SDS011;12726;49.148;8.582;2022-12-18T02:43:06;53.50;;;23.35;;
24557;SDS011;12726;49.148;8.582;2022-12-18T02:45:53;56.42;;;24.17;;
24557;SDS011;12726;49.148;8.582;2022-12-18T02:48:40;50.60;;;23.77;;
24557;SDS011;12726;49.148;8.582;2022-12-18T02:51:27;56.88;;;25.92;;
24557;SDS011;12726;49.148;8.582;2022-12-18T02:54:18;48.90;;;23.27;;
24557;SDS011;12726;49.148;8.582;2022-12-18T02:57:14;50.47;;;22.88;;
24557;SDS011;12726;49.148;8.582;2022-12-18T03:00:08;64.97;;;25.50;;
24557;SDS011;12726;49.148;8.582;2022-12-18T03:02:57;53.33;;;24.73;;
24557;SDS011;12726;49.148;8.582;2022-12-18T03:05:50;59.03;;;24.00;;
24557;SDS011;12726;49.148;8.582;2022-12-18T03:08:41;54.95;;;25.08;;
24557;SDS011;12726;49.148;8.582;2022-12-18T03:11:30;54.67;;;23.95;;
24557;SDS011;12726;49.148;8.582;2022-12-18T03:14:36;54.83;;;24.55;;
24557;SDS011;12726;49.148;8.582;2022-12-18T03:17:26;50.53;;;24.55;;
24557;SDS011;12726;49.148;8.582;2022-12-18T03:20:16;54.20;;;23.65;;
24557;SDS011;12726;49.148;8.582;2022-12-18T03:23:06;58.65;;;25.17;;
24557;SDS011;12726;49.148;8.582;2022-12-18T03:25:54;52.30;;;23.25;;
24557;SDS011;12726;49.148;8.582;2022-12-18T03:28:46;51.58;;;24.25;;
24557;SDS011;12726;49.148;8.582;2022-12-18T03:31:35;51.80;;;24.30;;
24557;SDS011;12726;49.148;8.582;2022-12-18T03:34:24;55.33;;;24.75;;
24557;SDS011;12726;49.148;8.582;2022-12-18T03:37:13;51.80;;;23.55;;
24557;SDS011;12726;49.148;8.582;2022-12-18T03:39:58;51.78;;;24.75;;
24557;SDS011;12726;49.148;8.582;2022-12-18T03:42:46;56.65;;;25.58;;
24557;SDS011;12726;49.148;8.582;2022-12-18T03:45:36;54.75;;;24.85;;
24557;SDS011;12726;49.148;8.582;2022-12-18T03:48:29;48.75;;;24.15;;
24557;SDS011;12726;49.148;8.582;2022-12-18T03:51:18;50.97;;;23.70;;
24557;SDS011;12726;49.148;8.582;2022-12-18T03:54:10;53.17;;;24.02;;
24557;SDS011;12726;49.148;8.582;2022-12-18T03:56:57;50.17;;;24.73;;
24557;SDS011;12726;49.148;8.582;2022-12-18T03:59:46;50.05;;;22.75;;
24557;SDS011;12726;49.148;8.582;2022-12-18T04:02:34;53.58;;;24.92;;
24557;SDS011;12726;49.148;8.582;2022-12-18T04:05:25;56.08;;;24.55;;
24557;SDS011;12726;49.148;8.582;2022-12-18T04:08:13;54.38;;;23.92;;
24557;SDS011;12726;49.148;8.582;2022-12-18T04:10:59;55.70;;;24.60;;
24557;SDS011;12726;49.148;8.582;2022-12-18T04:13:45;50.33;;;23.60;;
24557;SDS011;12726;49.148;8.582;2022-12-18T04:16:30;49.75;;;23.25;;
24557;SDS011;12726;49.148;8.582;2022-12-18T04:19:16;50.63;;;24.02;;
24557;SDS011;12726;49.148;8.582;2022-12-18T04:22:01;51.40;;;24.05;;
24557;SDS011;12726;49.148;8.582;2022-12-18T04:24:48;56.42;;;24.55;;
24557;SDS011;12726;49.148;8.582;2022-12-18T04:27:33;47.22;;;23.02;;
24557;SDS011;12726;49.148;8.582;2022-12-18T04:30:18;51.10;;;25.03;;
24557;SDS011;12726;49.148;8.582;2022-12-18T04:33:03;51.95;;;24.13;;
24557;SDS011;12726;49.148;8.582;2022-12-18T04:35:52;44.90;;;24.00;;
24557;SDS011;12726;49.148;8.582;2022-12-18T04:38:38;47.67;;;22.17;;
24557;SDS011;12726;49.148;8.582;2022-12-18T04:41:25;54.25;;;24.92;;
24557;SDS011;12726;49.148;8.582;2022-12-18T04:44:10;47.83;;;23.30;;
24557;SDS011;12726;49.148;8.582;2022-12-18T04:46:55;53.35;;;24.67;;
24557;SDS011;12726;49.148;8.582;2022-12-18T04:49:41;61.30;;;24.88;;
24557;SDS011;12726;49.148;8.582;2022-12-18T04:52:26;49.25;;;23.25;;
24557;SDS011;12726;49.148;8.582;2022-12-18T04:55:11;49.58;;;23.58;;
24557;SDS011;12726;49.148;8.582;2022-12-18T04:57:58;46.97;;;23.10;;
24557;SDS011;12726;49.148;8.582;2022-12-18T05:00:43;55.42;;;24.60;;
24557;SDS011;12726;49.148;8.582;2022-12-18T05:03:28;48.33;;;22.30;;
24557;SDS011;12726;49.148;8.582;2022-12-18T05:06:14;49.08;;;23.40;;
24557;SDS011;12726;49.148;8.582;2022-12-18T05:08:59;53.63;;;24.63;;
24557;SDS011;12726;49.148;8.582;2022-12-18T05:11:44;48.65;;;24.08;;
24557;SDS011;12726;49.148;8.582;2022-12-18T05:14:31;55.38;;;24.63;;
24557;SDS011;12726;49.148;8.582;2022-12-18T05:17:17;56.75;;;23.92;;
24557;SDS011;12726;49.148;8.582;2022-12-18T05:20:02;51.30;;;23.58;;
24557;SDS011;12726;49.148;8.582;2022-12-18T05:22:48;49.08;;;22.25;;
24557;SDS011;12726;49.148;8.582;2022-12-18T05:25:34;49.67;;;23.48;;
24557;SDS011;12726;49.148;8.582;2022-12-18T05:28:19;51.85;;;23.63;;
24557;SDS011;12726;49.148;8.582;2022-12-18T05:31:07;55.80;;;23.25;;
24557;SDS011;12726;49.148;8.582;2022-12-18T05:33:52;46.22;;;21.17;;
24557;SDS011;12726;49.148;8.582;2022-12-18T05:36:38;54.08;;;23.13;;
24557;SDS011;12726;49.148;8.582;2022-12-18T05:39:23;46.35;;;21.67;;
24557;SDS011;12726;49.148;8.582;2022-12-18T05:42:08;49.90;;;22.58;;
24557;SDS011;12726;49.148;8.582;2022-12-18T05:44:53;53.95;;;24.17;;
24557;SDS011;12726;49.148;8.582;2022-12-18T05:47:40;53.63;;;21.45;;
24557;SDS011;12726;49.148;8.582;2022-12-18T05:50:25;50.92;;;21.70;;
24557;SDS011;12726;49.148;8.582;2022-12-18T05:53:11;49.72;;;21.95;;
24557;SDS011;12726;49.148;8.582;2022-12-18T05:55:59;50.40;;;22.77;;
24557;SDS011;12726;49.148;8.582;2022-12-18T05:58:45;46.92;;;21.50;;
24557;SDS011;12726;49.148;8.582;2022-12-18T06:01:31;52.03;;;21.23;;
24557;SDS011;12726;49.148;8.582;2022-12-18T06:04:17;45.72;;;21.15;;
24557;SDS011;12726;49.148;8.582;2022-12-18T06:07:03;47.20;;;20.10;;
24557;SDS011;12726;49.148;8.582;2022-12-18T06:09:48;47.47;;;20.95;;
24557;SDS011;12726;49.148;8.582;2022-12-18T06:12:33;41.42;;;20.33;;
24557;SDS011;12726;49.148;8.582;2022-12-18T06:15:18;46.40;;;20.63;;
24557;SDS011;12726;49.148;8.582;2022-12-18T06:18:04;42.70;;;18.38;;
24557;SDS011;12726;49.148;8.582;2022-12-18T06:20:55;46.05;;;21.70;;
24557;SDS011;12726;49.148;8.582;2022-12-18T06:23:41;39.72;;;18.27;;
24557;SDS011;12726;49.148;8.582;2022-12-18T06:26:27;39.45;;;18.83;;
24557;SDS011;12726;49.148;8.582;2022-12-18T06:29:12;44.13;;;18.63;;
24557;SDS011;12726;49.148;8.582;2022-12-18T06:31:58;45.13;;;19.00;;
24557;SDS011;12726;49.148;8.582;2022-12-18T06:34:43;46.22;;;19.55;;
24557;SDS011;12726;49.148;8.582;2022-12-18T06:37:31;41.60;;;19.98;;
24557;SDS011;12726;49.148;8.582;2022-12-18T06:40:16;39.13;;;18.42;;
24557;SDS011;12726;49.148;8.582;2022-12-18T06:43:01;41.10;;;19.25;;
24557;SDS011;12726;49.148;8.582;2022-12-18T06:45:46;39.80;;;16.75;;
24557;SDS011;12726;49.148;8.582;2022-12-18T06:48:36;40.97;;;18.08;;
24557;SDS011;12726;49.148;8.582;2022-12-18T06:51:22;45.05;;;19.52;;
24557;SDS011;12726;49.148;8.582;2022-12-18T06:54:10;39.95;;;20.05;;
24557;SDS011;12726;49.148;8.582;2022-12-18T06:56:55;59.15;;;22.92;;
24557;SDS011;12726;49.148;8.582;2022-12-18T06:59:40;55.28;;;22.58;;
24557;SDS011;12726;49.148;8.582;2022-12-18T07:02:26;50.47;;;22.33;;
24557;SDS011;12726;49.148;8.582;2022-12-18T07:05:11;57.20;;;24.70;;
24557;SDS011;12726;49.148;8.582;2022-12-18T07:07:57;55.65;;;23.63;;
24557;SDS011;12726;49.148;8.582;2022-12-18T07:10:44;55.15;;;23.63;;
24557;SDS011;12726;49.148;8.582;2022-12-18T07:13:29;51.72;;;23.60;;
24557;SDS011;12726;49.148;8.582;2022-12-18T07:16:16;52.17;;;21.33;;
24557;SDS011;12726;49.148;8.582;2022-12-18T07:19:02;55.35;;;23.67;;
24557;SDS011;12726;49.148;8.582;2022-12-18T07:21:47;54.30;;;21.67;;
24557;SDS011;12726;49.148;8.582;2022-12-18T07:24:34;54.47;;;22.67;;
24557;SDS011;12726;49.148;8.582;2022-12-18T07:27:20;50.38;;;21.00;;
24557;SDS011;12726;49.148;8.582;2022-12-18T07:30:06;53.92;;;23.30;;
24557;SDS011;12726;49.148;8.582;2022-12-18T07:32:52;47.85;;;21.15;;
24557;SDS011;12726;49.148;8.582;2022-12-18T07:35:38;46.17;;;21.23;;
24557;SDS011;12726;49.148;8.582;2022-12-18T07:38:23;50.65;;;20.90;;
24557;SDS011;12726;49.148;8.582;2022-12-18T07:41:09;47.17;;;20.05;;
24557;SDS011;12726;49.148;8.582;2022-12-18T07:43:56;55.03;;;22.38;;
24557;SDS011;12726;49.148;8.582;2022-12-18T07:46:41;52.63;;;22.88;;
24557;SDS011;12726;49.148;8.582;2022-12-18T07:49:27;49.28;;;21.52;;
24557;SDS011;12726;49.148;8.582;2022-12-18T07:52:12;53.45;;;21.90;;
24557;SDS011;12726;49.148;8.582;2022-12-18T07:54:58;52.65;;;22.67;;
24557;SDS011;12726;49.148;8.582;2022-12-18T07:57:43;53.38;;;21.38;;
24557;SDS011;12726;49.148;8.582;2022-12-18T08:00:30;48.33;;;19.42;;
24557;SDS011;12726;49.148;8.582;2022-12-18T08:03:16;52.28;;;22.45;;
24557;SDS011;12726;49.148;8.582;2022-12-18T08:06:01;48.30;;;20.58;;
24557;SDS011;12726;49.148;8.582;2022-12-18T08:08:47;51.38;;;20.83;;
24557;SDS011;12726;49.148;8.582;2022-12-18T08:11:33;58.40;;;21.38;;
24557;SDS011;12726;49.148;8.582;2022-12-18T08:14:18;53.88;;;20.55;;
24557;SDS011;12726;49.148;8.582;2022-12-18T08:17:05;57.95;;;22.08;;
24557;SDS011;12726;49.148;8.582;2022-12-18T08:19:50;52.15;;;22.35;;
24557;SDS011;12726;49.148;8.582;2022-12-18T08:22:36;67.95;;;23.65;;
24557;SDS011;12726;49.148;8.582;2022-12-18T08:25:22;58.80;;;23.13;;
24557;SDS011;12726;49.148;8.582;2022-12-18T08:28:08;57.08;;;22.88;;
24557;SDS011;12726;49.148;8.582;2022-12-18T08:30:53;50.28;;;20.80;;
24557;SDS011;12726;49.148;8.582;2022-12-18T08:33:40;73.20;;;25.42;;
24557;SDS011;12726;49.148;8.582;2022-12-18T08:36:25;56.00;;;24.20;;
24557;SDS011;12726;49.148;8.582;2022-12-18T08:39:10;53.95;;;22.77;;
24557;SDS011;12726;49.148;8.582;2022-12-18T08:41:55;61.65;;;24.42;;
24557;SDS011;12726;49.148;8.582;2022-12-18T08:44:58;56.47;;;23.35;;
24557;SDS011;12726;49.148;8.582;2022-12-18T08:47:43;64.25;;;25.05;;
24557;SDS011;12726;49.148;8.582;2022-12-18T08:50:30;61.92;;;25.15;;
24557;SDS011;12726;49.148;8.582;2022-12-18T08:53:16;64.88;;;26.92;;
24557;SDS011;12726;49.148;8.582;2022-12-18T08:56:01;57.40;;;24.02;;
24557;SDS011;12726;49.148;8.582;2022-12-18T08:58:46;62.38;;;23.58;;
24557;SDS011;12726;49.148;8.582;2022-12-18T09:01:32;55.47;;;25.08;;
24557;SDS011;12726;49.148;8.582;2022-12-18T09:04:17;47.55;;;21.55;;
24557;SDS011;12726;49.148;8.582;2022-12-18T09:07:03;42.38;;;20.60;;
24557;SDS011;12726;49.148;8.582;2022-12-18T09:09:49;43.83;;;21.08;;
24557;SDS011;12726;49.148;8.582;2022-12-18T09:12:34;49.58;;;22.30;;
24557;SDS011;12726;49.148;8.582;2022-12-18T09:15:19;47.05;;;22.60;;
24557;SDS011;12726;49.148;8.582;2022-12-18T09:18:05;42.83;;;22.38;;
24557;SDS011;12726;49.148;8.582;2022-12-18T09:20:50;93.05;;;38.97;;
24557;SDS011;12726;49.148;8.582;2022-12-18T09:23:37;64.05;;;30.20;;
24557;SDS011;12726;49.148;8.582;2022-12-18T09:26:23;73.28;;;32.20;;
24557;SDS011;12726;49.148;8.582;2022-12-18T09:29:10;62.45;;;33.42;;
24557;SDS011;12726;49.148;8.582;2022-12-18T09:31:55;53.67;;;27.38;;
24557;SDS011;12726;49.148;8.582;2022-12-18T09:34:41;52.92;;;28.08;;
24557;SDS011;12726;49.148;8.582;2022-12-18T09:37:26;42.53;;;23.15;;
24557;SDS011;12726;49.148;8.582;2022-12-18T09:40:14;40.28;;;23.27;;
24557;SDS011;12726;49.148;8.582;2022-12-18T09:43:02;41.10;;;23.20;;
24557;SDS011;12726;49.148;8.582;2022-12-18T09:45:50;40.72;;;23.05;;
24557;SDS011;12726;49.148;8.582;2022-12-18T09:48:40;39.35;;;22.75;;
24557;SDS011;12726;49.148;8.582;2022-12-18T09:51:28;35.03;;;20.58;;
24557;SDS011;12726;49.148;8.582;2022-12-18T09:54:20;33.67;;;20.97;;
24557;SDS011;12726;49.148;8.582;2022-12-18T09:57:11;34.00;;;20.40;;
24557;SDS011;12726;49.148;8.582;2022-12-18T10:00:00;38.85;;;22.63;;
24557;SDS011;12726;49.148;8.582;2022-12-18T10:02:51;35.88;;;22.58;;
24557;SDS011;12726;49.148;8.582;2022-12-18T10:05:39;43.85;;;24.10;;
24557;SDS011;12726;49.148;8.582;2022-12-18T10:08:33;41.80;;;24.23;;
24557;SDS011;12726;49.148;8.582;2022-12-18T10:11:32;46.40;;;26.40;;
24557;SDS011;12726;49.148;8.582;2022-12-18T10:14:26;41.85;;;23.17;;
24557;SDS011;12726;49.148;8.582;2022-12-18T10:17:18;38.35;;;22.17;;
24557;SDS011;12726;49.148;8.582;2022-12-18T10:20:12;40.10;;;24.52;;
24557;SDS011;12726;49.148;8.582;2022-12-18T10:23:02;42.08;;;26.08;;
24557;SDS011;12726;49.148;8.582;2022-12-18T10:25:55;41.13;;;24.58;;
24557;SDS011;12726;49.148;8.582;2022-12-18T10:28:45;47.08;;;25.38;;
24557;SDS011;12726;49.148;8.582;2022-12-18T10:31:32;47.38;;;27.33;;
24557;SDS011;12726;49.148;8.582;2022-12-18T10:34:18;40.50;;;22.92;;
24557;SDS011;12726;49.148;8.582;2022-12-18T10:37:03;48.42;;;26.83;;
24557;SDS011;12726;49.148;8.582;2022-12-18T10:40:04;48.28;;;27.52;;
24557;SDS011;12726;49.148;8.582;2022-12-18T10:43:02;51.33;;;27.63;;
24557;SDS011;12726;49.148;8.582;2022-12-18T10:45:58;46.38;;;26.08;;
24557;SDS011;12726;49.148;8.582;2022-12-18T10:48:52;42.30;;;24.05;;
24557;SDS011;12726;49.148;8.582;2022-12-18T10:51:39;44.25;;;24.63;;
24557;SDS011;12726;49.148;8.582;2022-12-18T10:54:24;42.67;;;24.33;;
24557;SDS011;12726;49.148;8.582;2022-12-18T10:57:14;40.00;;;23.85;;
24557;SDS011;12726;49.148;8.582;2022-12-18T11:00:03;42.67;;;24.80;;
24557;SDS011;12726;49.148;8.582;2022-12-18T11:03:14;41.25;;;24.17;;
24557;SDS011;12726;49.148;8.582;2022-12-18T11:06:17;44.30;;;25.43;;
24557;SDS011;12726;49.148;8.582;2022-12-18T11:09:05;45.45;;;25.88;;
24557;SDS011;12726;49.148;8.582;2022-12-18T11:12:04;44.22;;;24.00;;
24557;SDS011;12726;49.148;8.582;2022-12-18T11:14:59;40.38;;;23.98;;
24557;SDS011;12726;49.148;8.582;2022-12-18T11:17:44;42.92;;;24.48;;
24557;SDS011;12726;49.148;8.582;2022-12-18T11:20:33;38.28;;;23.05;;
24557;SDS011;12726;49.148;8.582;2022-12-18T11:23:21;38.38;;;24.05;;
24557;SDS011;12726;49.148;8.582;2022-12-18T11:26:08;34.20;;;22.90;;
24557;SDS011;12726;49.148;8.582;2022-12-18T11:29:07;35.55;;;22.83;;
24557;SDS011;12726;49.148;8.582;2022-12-18T11:31:57;39.05;;;23.45;;
24557;SDS011;12726;49.148;8.582;2022-12-18T11:35:12;39.28;;;22.92;;
24557;SDS011;12726;49.148;8.582;2022-12-18T11:38:04;44.65;;;24.55;;
24557;SDS011;12726;49.148;8.582;2022-12-18T11:40:59;39.97;;;24.63;;
24557;SDS011;12726;49.148;8.582;2022-12-18T11:43:50;36.25;;;22.27;;
24557;SDS011;12726;49.148;8.582;2022-12-18T11:46:40;42.58;;;23.60;;
24557;SDS011;12726;49.148;8.582;2022-12-18T11:49:34;80.88;;;39.50;;
24557;SDS011;12726;49.148;8.582;2022-12-18T11:52:21;44.50;;;24.42;;
24557;SDS011;12726;49.148;8.582;2022-12-18T11:55:11;40.75;;;23.33;;
24557;SDS011;12726;49.148;8.582;2022-12-18T11:58:01;40.55;;;23.13;;
24557;SDS011;12726;49.148;8.582;2022-12-18T12:00:54;42.95;;;24.38;;
24557;SDS011;12726;49.148;8.582;2022-12-18T12:03:51;43.25;;;22.75;;
24557;SDS011;12726;49.148;8.582;2022-12-18T12:07:02;45.90;;;25.92;;
24557;SDS011;12726;49.148;8.582;2022-12-18T12:10:00;46.05;;;23.48;;
24557;SDS011;12726;49.148;8.582;2022-12-18T12:12:56;47.67;;;25.10;;
24557;SDS011;12726;49.148;8.582;2022-12-18T12:15:55;46.78;;;24.08;;
24557;SDS011;12726;49.148;8.582;2022-12-18T12:18:55;47.92;;;25.02;;
24557;SDS011;12726;49.148;8.582;2022-12-18T12:21:47;48.00;;;24.38;;
24557;SDS011;12726;49.148;8.582;2022-12-18T12:24:42;51.60;;;26.15;;
24557;SDS011;12726;49.148;8.582;2022-12-18T12:27:39;57.58;;;26.52;;
24557;SDS011;12726;49.148;8.582;2022-12-18T12:30:33;46.10;;;23.55;;
24557;SDS011;12726;49.148;8.582;2022-12-18T12:33:31;43.75;;;21.90;;
24557;SDS011;12726;49.148;8.582;2022-12-18T12:36:25;49.95;;;25.10;;
24557;SDS011;12726;49.148;8.582;2022-12-18T12:39:20;43.80;;;22.52;;
24557;SDS011;12726;49.148;8.582;2022-12-18T12:42:14;43.95;;;22.77;;
24557;SDS011;12726;49.148;8.582;2022-12-18T12:45:22;46.22;;;23.33;;
24557;SDS011;12726;49.148;8.582;2022-12-18T12:48:16;43.53;;;22.60;;
24557;SDS011;12726;49.148;8.582;2022-12-18T12:51:19;45.83;;;23.83;;
24557;SDS011;12726;49.148;8.582;2022-12-18T12:57:01;42.67;;;22.90;;
24557;SDS011;12726;49.148;8.582;2022-12-18T12:59:56;52.10;;;24.02;;
24557;SDS011;12726;49.148;8.582;2022-12-18T13:02:47;42.22;;;23.50;;
24557;SDS011;12726;49.148;8.582;2022-12-18T13:05:43;48.65;;;24.23;;
24557;SDS011;12726;49.148;8.582;2022-12-18T13:08:50;51.00;;;25.23;;
24557;SDS011;12726;49.148;8.582;2022-12-18T13:11:38;52.92;;;24.15;;
24557;SDS011;12726;49.148;8.582;2022-12-18T13:14:43;47.17;;;24.13;;
24557;SDS011;12726;49.148;8.582;2022-12-18T13:17:29;51.10;;;23.27;;
24557;SDS011;12726;49.148;8.582;2022-12-18T13:20:16;44.75;;;23.27;;
24557;SDS011;12726;49.148;8.582;2022-12-18T13:23:03;44.92;;;22.55;;
24557;SDS011;12726;49.148;8.582;2022-12-18T13:29:40;50.15;;;23.30;;
24557;SDS011;12726;49.148;8.582;2022-12-18T13:32:26;53.45;;;23.98;;
24557;SDS011;12726;49.148;8.582;2022-12-18T13:38:32;51.22;;;24.98;;
24557;SDS011;12726;49.148;8.582;2022-12-18T13:41:23;47.70;;;23.30;;
24557;SDS011;12726;49.148;8.582;2022-12-18T13:44:11;42.50;;;20.00;;
24557;SDS011;12726;49.148;8.582;2022-12-18T13:47:25;46.38;;;20.60;;
24557;SDS011;12726;49.148;8.582;2022-12-18T13:50:22;45.53;;;19.17;;
24557;SDS011;12726;49.148;8.582;2022-12-18T13:53:12;43.80;;;19.17;;
24557;SDS011;12726;49.148;8.582;2022-12-18T13:56:06;39.15;;;18.98;;
24557;SDS011;12726;49.148;8.582;2022-12-18T14:02:11;41.78;;;19.10;;
24557;SDS011;12726;49.148;8.582;2022-12-18T14:04:58;37.25;;;18.38;;
24557;SDS011;12726;49.148;8.582;2022-12-18T14:07:43;37.13;;;16.58;;
24557;SDS011;12726;49.148;8.582;2022-12-18T14:10:29;44.00;;;19.08;;
24557;SDS011;12726;49.148;8.582;2022-12-18T14:13:18;40.50;;;18.55;;
24557;SDS011;12726;49.148;8.582;2022-12-18T14:16:11;47.25;;;18.80;;
24557;SDS011;12726;49.148;8.582;2022-12-18T14:19:00;41.20;;;19.00;;
24557;SDS011;12726;49.148;8.582;2022-12-18T14:21:46;45.50;;;19.27;;
24557;SDS011;12726;49.148;8.582;2022-12-18T14:24:35;46.05;;;18.95;;
24557;SDS011;12726;49.148;8.582;2022-12-18T14:27:22;43.38;;;19.52;;
24557;SDS011;12726;49.148;8.582;2022-12-18T14:30:24;47.22;;;21.08;;
24557;SDS011;12726;49.148;8.582;2022-12-18T14:33:11;44.05;;;19.40;;
24557;SDS011;12726;49.148;8.582;2022-12-18T14:35:58;46.10;;;19.77;;
24557;SDS011;12726;49.148;8.582;2022-12-18T14:38:47;44.53;;;19.55;;
24557;SDS011;12726;49.148;8.582;2022-12-18T14:41:34;45.95;;;20.02;;
24557;SDS011;12726;49.148;8.582;2022-12-18T14:44:19;43.63;;;20.60;;
24557;SDS011;12726;49.148;8.582;2022-12-18T14:47:13;45.15;;;20.67;;
24557;SDS011;12726;49.148;8.582;2022-12-18T14:49:59;43.42;;;18.95;;
24557;SDS011;12726;49.148;8.582;2022-12-18T14:52:45;53.33;;;20.55;;
24557;SDS011;12726;49.148;8.582;2022-12-18T14:55:31;46.83;;;20.50;;
24557;SDS011;12726;49.148;8.582;2022-12-18T14:58:16;43.30;;;19.42;;
24557;SDS011;12726;49.148;8.582;2022-12-18T15:01:02;48.97;;;20.92;;
24557;SDS011;12726;49.148;8.582;2022-12-18T15:03:49;48.13;;;22.08;;
24557;SDS011;12726;49.148;8.582;2022-12-18T15:06:36;48.60;;;20.77;;
24557;SDS011;12726;49.148;8.582;2022-12-18T15:09:24;52.95;;;23.40;;
24557;SDS011;12726;49.148;8.582;2022-12-18T15:12:24;44.80;;;20.92;;
24557;SDS011;12726;49.148;8.582;2022-12-18T15:18:29;48.97;;;19.58;;
24557;SDS011;12726;49.148;8.582;2022-12-18T15:21:19;48.90;;;20.05;;
24557;SDS011;12726;49.148;8.582;2022-12-18T15:24:13;42.67;;;20.05;;
24557;SDS011;12726;49.148;8.582;2022-12-18T15:27:02;51.47;;;21.98;;
24557;SDS011;12726;49.148;8.582;2022-12-18T15:29:59;42.58;;;20.13;;
24557;SDS011;12726;49.148;8.582;2022-12-18T15:32:45;45.17;;;19.23;;
24557;SDS011;12726;49.148;8.582;2022-12-18T15:35:31;46.15;;;19.95;;
24557;SDS011;12726;49.148;8.582;2022-12-18T15:38:18;47.92;;;19.48;;
24557;SDS011;12726;49.148;8.582;2022-12-18T15:41:03;46.45;;;19.17;;
24557;SDS011;12726;49.148;8.582;2022-12-18T15:43:54;45.17;;;19.90;;
24557;SDS011;12726;49.148;8.582;2022-12-18T15:46:39;51.65;;;21.00;;
24557;SDS011;12726;49.148;8.582;2022-12-18T15:49:25;50.60;;;20.35;;
24557;SDS011;12726;49.148;8.582;2022-12-18T15:52:10;53.08;;;21.80;;
24557;SDS011;12726;49.148;8.582;2022-12-18T15:55:11;51.75;;;20.08;;
24557;SDS011;12726;49.148;8.582;2022-12-18T15:58:15;45.42;;;19.17;;
24557;SDS011;12726;49.148;8.582;2022-12-18T16:01:00;46.83;;;20.20;;
24557;SDS011;12726;49.148;8.582;2022-12-18T16:03:46;49.33;;;20.15;;
24557;SDS011;12726;49.148;8.582;2022-12-18T16:06:31;48.88;;;19.83;;
24557;SDS011;12726;49.148;8.582;2022-12-18T16:09:17;46.72;;;20.08;;
24557;SDS011;12726;49.148;8.582;2022-12-18T16:12:04;45.78;;;19.80;;
24557;SDS011;12726;49.148;8.582;2022-12-18T16:14:49;46.10;;;21.13;;
24557;SDS011;12726;49.148;8.582;2022-12-18T16:17:35;54.85;;;23.45;;
24557;SDS011;12726;49.148;8.582;2022-12-18T16:20:21;53.42;;;23.73;;
24557;SDS011;12726;49.148;8.582;2022-12-18T16:23:07;56.10;;;23.23;;
24557;SDS011;12726;49.148;8.582;2022-12-18T16:25:52;54.47;;;22.95;;
24557;SDS011;12726;49.148;8.582;2022-12-18T16:28:39;54.63;;;22.75;;
24557;SDS011;12726;49.148;8.582;2022-12-18T16:31:24;51.17;;;21.80;;
24557;SDS011;12726;49.148;8.582;2022-12-18T16:34:11;48.85;;;21.13;;
24557;SDS011;12726;49.148;8.582;2022-12-18T16:36:57;50.22;;;21.83;;
24557;SDS011;12726;49.148;8.582;2022-12-18T16:39:44;50.88;;;22.02;;
24557;SDS011;12726;49.148;8.582;2022-12-18T16:42:29;54.95;;;23.90;;
24557;SDS011;12726;49.148;8.582;2022-12-18T16:45:17;56.45;;;24.02;;